Time;durP1;ratioP1;P1;durP2;ratioP2;P2;SDS_P1;SDS_P2;PMS_P1;PMS_P2;Temp;Humidity;BMP_temperature;BMP_pressure;BME280_temperature;BME280_humidity;BME280_pressure;Samples;Min_cycle;Max_cycle;Signal;HPM_P1;HPM_P2
2021/09/22 00:01:44;;;;;;;11.73;7.57;;;;;;;;;;5070348;28;20450;-70
2021/09/22 00:04:12;;;;;;;8.00;7.20;;;;;;;;;;5070469;28;20538;-68
2021/09/22 00:06:40;;;;;;;8.37;7.10;;;;;;;;;;5069388;28;20564;-68
2021/09/22 00:09:07;;;;;;;9.40;7.37;;;;;;;;;;5070641;28;20481;-68
2021/09/22 00:11:34;;;;;;;7.13;6.13;;;;;;;;;;5069410;28;20528;-67
2021/09/22 00:14:02;;;;;;;9.10;7.10;;;;;;;;;;5069621;28;20799;-67
2021/09/22 00:16:29;;;;;;;9.30;7.50;;;;;;;;;;5069638;28;20450;-69
2021/09/22 00:18:56;;;;;;;8.17;7.30;;;;;;;;;;5070249;28;20449;-68
2021/09/22 00:21:23;;;;;;;8.60;6.63;;;;;;;;;;5069680;28;20445;-68
2021/09/22 00:23:52;;;;;;;8.87;6.73;;;;;;;;;;5069047;28;20819;-68
2021/09/22 00:26:19;;;;;;;9.77;7.50;;;;;;;;;;5069259;28;20541;-68
2021/09/22 00:28:46;;;;;;;10.13;7.20;;;;;;;;;;5068940;28;21010;-68
2021/09/22 00:31:14;;;;;;;7.97;6.37;;;;;;;;;;5069636;28;20441;-69
2021/09/22 00:33:41;;;;;;;9.23;7.37;;;;;;;;;;5068089;28;20473;-68
2021/09/22 00:36:08;;;;;;;8.83;6.87;;;;;;;;;;5069611;28;20458;-68
2021/09/22 00:38:35;;;;;;;9.97;6.70;;;;;;;;;;5068552;28;20630;-68
2021/09/22 00:41:04;;;;;;;10.60;8.20;;;;;;;;;;5057219;28;20525;-68
2021/09/22 00:43:31;;;;;;;9.07;7.50;;;;;;;;;;5068713;28;20953;-69
2021/09/22 00:46:03;;;;;;;9.63;8.53;;;;;;;;;;5069599;28;20808;-69
2021/09/22 00:48:31;;;;;;;10.27;6.70;;;;;;;;;;5068753;28;20477;-69
2021/09/22 00:50:58;;;;;;;9.90;6.97;;;;;;;;;;5069450;28;20524;-68
2021/09/22 00:53:25;;;;;;;8.57;6.50;;;;;;;;;;5069481;28;20848;-69
2021/09/22 00:55:52;;;;;;;8.80;6.30;;;;;;;;;;5068445;28;20669;-68
2021/09/22 00:58:21;;;;;;;9.50;7.43;;;;;;;;;;5069449;28;20442;-68
2021/09/22 01:00:48;;;;;;;11.93;8.10;;;;;;;;;;5067889;28;20934;-69
2021/09/22 01:03:15;;;;;;;10.87;8.00;;;;;;;;;;5068757;28;20971;-68
2021/09/22 01:05:42;;;;;;;10.33;6.97;;;;;;;;;;5068841;28;20597;-68
2021/09/22 01:08:10;;;;;;;8.83;6.83;;;;;;;;;;5069344;28;20517;-68
2021/09/22 01:10:38;;;;;;;9.50;7.80;;;;;;;;;;5068257;28;20450;-68
2021/09/22 01:13:05;;;;;;;9.83;7.13;;;;;;;;;;5068789;28;20449;-69
2021/09/22 01:15:35;;;;;;;8.93;7.60;;;;;;;;;;5068609;28;20451;-68
2021/09/22 01:18:03;;;;;;;13.90;8.33;;;;;;;;;;5069253;28;20452;-68
2021/09/22 01:20:32;;;;;;;11.33;7.47;;;;;;;;;;5068445;28;20446;-68
2021/09/22 01:23:01;;;;;;;10.00;7.00;;;;;;;;;;5068642;28;20448;-68
2021/09/22 01:25:29;;;;;;;9.03;7.17;;;;;;;;;;5068911;28;20537;-71
2021/09/22 01:27:57;;;;;;;8.23;7.37;;;;;;;;;;5062782;28;20528;-68
2021/09/22 01:30:25;;;;;;;11.03;8.00;;;;;;;;;;5069131;28;20524;-70
2021/09/22 01:32:53;;;;;;;12.87;7.90;;;;;;;;;;5068256;28;20528;-67
2021/09/22 01:35:20;;;;;;;9.50;7.23;;;;;;;;;;5069000;28;20536;-68
2021/09/22 01:37:47;;;;;;;9.63;7.30;;;;;;;;;;5068686;28;21286;-68
2021/09/22 01:40:16;;;;;;;11.30;8.30;;;;;;;;;;5059404;28;20488;-68
2021/09/22 01:42:44;;;;;;;17.73;8.07;;;;;;;;;;5068303;28;20453;-67
2021/09/22 01:45:12;;;;;;;8.23;7.20;;;;;;;;;;5071145;28;20445;-68
2021/09/22 01:47:41;;;;;;;10.33;7.77;;;;;;;;;;5072685;28;20855;-68
2021/09/22 01:50:10;;;;;;;8.67;7.77;;;;;;;;;;5071744;28;20932;-68
2021/09/22 01:52:38;;;;;;;10.40;7.90;;;;;;;;;;5071843;28;20890;-68
2021/09/22 01:55:05;;;;;;;10.00;7.30;;;;;;;;;;5072164;28;20532;-69
2021/09/22 01:57:34;;;;;;;9.10;7.70;;;;;;;;;;5071604;28;20529;-68
2021/09/22 02:00:01;;;;;;;10.77;8.43;;;;;;;;;;5071996;28;20456;-68
2021/09/22 02:02:28;;;;;;;9.73;7.70;;;;;;;;;;5072080;28;20441;-71
2021/09/22 02:04:56;;;;;;;8.80;7.20;;;;;;;;;;5071947;28;20820;-68
2021/09/22 02:07:23;;;;;;;10.13;7.93;;;;;;;;;;5072199;28;20477;-68
2021/09/22 02:09:50;;;;;;;12.50;8.43;;;;;;;;;;5071073;28;20511;-68
2021/09/22 02:12:17;;;;;;;10.70;8.20;;;;;;;;;;5071510;28;20449;-68
2021/09/22 02:14:46;;;;;;;10.70;8.33;;;;;;;;;;5071090;28;20532;-71
2021/09/22 02:17:13;;;;;;;10.30;7.27;;;;;;;;;;5072121;28;20814;-68
2021/09/22 02:19:40;;;;;;;15.93;8.40;;;;;;;;;;5071135;28;20565;-68
2021/09/22 02:22:07;;;;;;;10.33;8.20;;;;;;;;;;5071712;28;20961;-68
2021/09/22 02:24:34;;;;;;;11.33;7.60;;;;;;;;;;5071362;28;20445;-68
2021/09/22 02:27:02;;;;;;;9.40;7.70;;;;;;;;;;5072053;28;20459;-68
2021/09/22 02:29:29;;;;;;;9.77;7.67;;;;;;;;;;5071600;28;20576;-69
2021/09/22 02:31:57;;;;;;;14.87;8.57;;;;;;;;;;5072033;28;20449;-67
2021/09/22 02:34:24;;;;;;;13.73;8.77;;;;;;;;;;5071674;28;20484;-70
2021/09/22 02:36:51;;;;;;;11.00;9.77;;;;;;;;;;5071632;28;20461;-67
2021/09/22 02:39:19;;;;;;;10.67;7.40;;;;;;;;;;5065426;28;20461;-69
2021/09/22 02:41:46;;;;;;;11.43;9.77;;;;;;;;;;5066541;28;20472;-67
2021/09/22 02:44:13;;;;;;;10.00;8.93;;;;;;;;;;5072069;28;20452;-68
2021/09/22 02:46:40;;;;;;;11.40;7.80;;;;;;;;;;5071635;28;20449;-68
2021/09/22 02:49:09;;;;;;;9.77;7.73;;;;;;;;;;5071902;28;20481;-68
2021/09/22 02:51:36;;;;;;;13.53;9.03;;;;;;;;;;5070675;28;20528;-68
2021/09/22 02:54:04;;;;;;;10.37;8.23;;;;;;;;;;5071408;28;20450;-68
2021/09/22 02:56:31;;;;;;;12.93;8.40;;;;;;;;;;5070755;28;20490;-67
2021/09/22 02:58:58;;;;;;;11.07;8.83;;;;;;;;;;5071488;28;20477;-69
2021/09/22 03:01:25;;;;;;;10.33;8.40;;;;;;;;;;5070763;28;20456;-68
2021/09/22 03:03:53;;;;;;;13.07;8.77;;;;;;;;;;5070712;28;20454;-67
2021/09/22 03:06:22;;;;;;;11.10;7.93;;;;;;;;;;5072526;28;20469;-67
2021/09/22 03:08:49;;;;;;;11.73;6.93;;;;;;;;;;5070973;28;20536;-68
2021/09/22 03:11:17;;;;;;;10.73;7.93;;;;;;;;;;5070735;28;20450;-67
2021/09/22 03:13:44;;;;;;;9.80;7.77;;;;;;;;;;5070298;28;20449;-67
2021/09/22 03:16:11;;;;;;;11.47;8.20;;;;;;;;;;5071679;28;20488;-69
2021/09/22 03:18:39;;;;;;;10.67;8.70;;;;;;;;;;5069821;28;20817;-67
2021/09/22 03:21:06;;;;;;;9.63;7.97;;;;;;;;;;5069957;28;20448;-67
2021/09/22 03:23:35;;;;;;;10.23;8.33;;;;;;;;;;5070612;28;20442;-68
2021/09/22 03:26:02;;;;;;;12.97;8.30;;;;;;;;;;5071049;28;20444;-67
2021/09/22 03:28:29;;;;;;;11.90;8.67;;;;;;;;;;5070370;28;20536;-69
2021/09/22 03:30:56;;;;;;;9.60;7.90;;;;;;;;;;5070028;28;20488;-68
2021/09/22 03:33:24;;;;;;;10.10;8.20;;;;;;;;;;5071085;28;20450;-69
2021/09/22 03:35:51;;;;;;;12.40;8.57;;;;;;;;;;5067205;28;20600;-67
2021/09/22 03:38:18;;;;;;;13.23;9.30;;;;;;;;;;5070151;28;20551;-67
2021/09/22 03:40:46;;;;;;;13.70;8.27;;;;;;;;;;5068765;28;20480;-68
2021/09/22 03:43:14;;;;;;;12.27;9.80;;;;;;;;;;5069648;28;20525;-67
2021/09/22 03:45:41;;;;;;;11.63;8.83;;;;;;;;;;5069275;28;20941;-67
2021/09/22 03:48:08;;;;;;;9.57;8.00;;;;;;;;;;5069029;28;20809;-68
2021/09/22 03:50:35;;;;;;;11.67;8.57;;;;;;;;;;5068394;28;20528;-68
2021/09/22 03:53:02;;;;;;;11.13;8.70;;;;;;;;;;5069654;28;20458;-67
2021/09/22 03:55:30;;;;;;;9.90;8.40;;;;;;;;;;5069709;28;20445;-70
2021/09/22 03:57:58;;;;;;;11.93;8.90;;;;;;;;;;5069757;28;20445;-68
2021/09/22 04:00:25;;;;;;;10.97;8.13;;;;;;;;;;5069248;28;20487;-68
2021/09/22 04:02:52;;;;;;;12.03;8.93;;;;;;;;;;5069502;28;20449;-68
2021/09/22 04:05:20;;;;;;;14.17;8.67;;;;;;;;;;5070227;28;20547;-66
2021/09/22 04:07:47;;;;;;;16.00;8.90;;;;;;;;;;5068954;28;20995;-67
2021/09/22 04:10:14;;;;;;;11.13;9.20;;;;;;;;;;5069590;28;20445;-67
2021/09/22 04:12:41;;;;;;;10.70;8.50;;;;;;;;;;5068562;28;20564;-67
2021/09/22 04:15:10;;;;;;;11.70;8.80;;;;;;;;;;5069757;28;20449;-67
2021/09/22 04:17:37;;;;;;;15.67;10.27;;;;;;;;;;5067516;28;20468;-67
2021/09/22 04:20:05;;;;;;;13.67;8.60;;;;;;;;;;5069457;28;20492;-71
2021/09/22 04:22:32;;;;;;;10.77;8.30;;;;;;;;;;5068922;28;20450;-68
2021/09/22 04:24:59;;;;;;;12.57;8.70;;;;;;;;;;5069452;28;20515;-67
2021/09/22 04:27:27;;;;;;;10.87;9.17;;;;;;;;;;5068322;28;20446;-68
2021/09/22 04:29:54;;;;;;;13.97;11.20;;;;;;;;;;5069272;28;20442;-67
2021/09/22 04:32:22;;;;;;;12.87;8.70;;;;;;;;;;5070134;28;20450;-69
2021/09/22 04:34:50;;;;;;;11.50;8.70;;;;;;;;;;5069143;28;20529;-67
2021/09/22 04:37:17;;;;;;;10.53;8.40;;;;;;;;;;5070168;28;20461;-67
2021/09/22 04:39:44;;;;;;;13.07;9.70;;;;;;;;;;5055016;28;20480;-68
2021/09/22 04:42:11;;;;;;;12.80;9.40;;;;;;;;;;5066404;28;20887;-69
2021/09/22 04:44:38;;;;;;;11.43;9.10;;;;;;;;;;5068888;28;20817;-66
2021/09/22 04:47:06;;;;;;;13.63;9.23;;;;;;;;;;5069675;28;20879;-67
2021/09/22 04:49:34;;;;;;;12.50;8.27;;;;;;;;;;5068901;28;20471;-67
2021/09/22 04:52:02;;;;;;;12.30;8.50;;;;;;;;;;5069332;28;20467;-67
2021/09/22 04:54:29;;;;;;;15.07;9.20;;;;;;;;;;5068675;28;20469;-72
2021/09/22 04:56:56;;;;;;;12.70;8.20;;;;;;;;;;5067978;28;20799;-67
2021/09/22 04:59:23;;;;;;;17.60;9.50;;;;;;;;;;5068718;28;21186;-67
2021/09/22 05:01:50;;;;;;;12.33;8.50;;;;;;;;;;5068586;28;20457;-67
2021/09/22 05:04:17;;;;;;;13.37;8.70;;;;;;;;;;5069127;28;20441;-66
2021/09/22 05:06:46;;;;;;;15.13;10.20;;;;;;;;;;5067895;28;20488;-69
2021/09/22 05:09:13;;;;;;;12.63;9.03;;;;;;;;;;5068546;28;21024;-67
2021/09/22 05:11:43;;;;;;;11.77;9.47;;;;;;;;;;5068749;28;21027;-67
2021/09/22 05:14:10;;;;;;;11.73;8.50;;;;;;;;;;5069017;28;20457;-66
2021/09/22 05:16:37;;;;;;;13.53;9.50;;;;;;;;;;5068669;28;20445;-67
2021/09/22 05:19:04;;;;;;;12.33;10.00;;;;;;;;;;5069855;28;20452;-72
2021/09/22 05:21:31;;;;;;;20.30;12.27;;;;;;;;;;5072733;28;20520;-67
2021/09/22 05:24:00;;;;;;;19.50;13.80;;;;;;;;;;5071088;28;21330;-69
2021/09/22 05:26:27;;;;;;;18.90;11.47;;;;;;;;;;5073484;28;20468;-67
2021/09/22 05:28:54;;;;;;;12.27;9.33;;;;;;;;;;5073017;28;20536;-68
2021/09/22 05:31:22;;;;;;;13.63;10.43;;;;;;;;;;5071126;28;20548;-68
2021/09/22 05:33:49;;;;;;;18.80;10.83;;;;;;;;;;5072526;28;20532;-68
2021/09/22 05:36:16;;;;;;;12.87;8.97;;;;;;;;;;5073022;28;20540;-68
2021/09/22 05:38:43;;;;;;;14.43;9.57;;;;;;;;;;5071243;28;20514;-68
2021/09/22 05:41:12;;;;;;;12.70;9.03;;;;;;;;;;5061818;28;20485;-68
2021/09/22 05:43:39;;;;;;;13.33;10.20;;;;;;;;;;5072527;28;20450;-68
2021/09/22 05:46:06;;;;;;;13.33;10.30;;;;;;;;;;5072946;28;20448;-69
2021/09/22 05:48:33;;;;;;;13.27;9.27;;;;;;;;;;5072428;28;20456;-68
2021/09/22 05:51:00;;;;;;;14.03;10.27;;;;;;;;;;5072864;28;20484;-68
2021/09/22 05:53:28;;;;;;;14.90;9.50;;;;;;;;;;5073195;28;20453;-68
2021/09/22 05:55:55;;;;;;;11.47;9.83;;;;;;;;;;5073134;28;20503;-68
2021/09/22 05:58:24;;;;;;;12.87;10.40;;;;;;;;;;5072619;28;20450;-68
2021/09/22 06:00:52;;;;;;;16.40;10.17;;;;;;;;;;5072143;28;20486;-68
2021/09/22 06:03:20;;;;;;;16.07;10.00;;;;;;;;;;5072690;28;20512;-68
2021/09/22 06:05:47;;;;;;;14.43;10.73;;;;;;;;;;5071741;28;20461;-68
2021/09/22 06:08:15;;;;;;;14.00;9.47;;;;;;;;;;5072770;28;20481;-68
2021/09/22 06:10:43;;;;;;;14.63;10.57;;;;;;;;;;5071648;28;20460;-69
2021/09/22 06:13:10;;;;;;;15.93;10.20;;;;;;;;;;5072713;28;20453;-68
2021/09/22 06:15:39;;;;;;;15.10;9.70;;;;;;;;;;5072066;28;20594;-68
2021/09/22 06:18:06;;;;;;;13.97;10.20;;;;;;;;;;5072177;28;20455;-68
2021/09/22 06:20:34;;;;;;;14.23;10.37;;;;;;;;;;5071498;28;20586;-68
2021/09/22 06:23:01;;;;;;;15.80;10.70;;;;;;;;;;5072333;28;20536;-68
2021/09/22 06:25:28;;;;;;;14.70;10.60;;;;;;;;;;5072506;28;20441;-72
2021/09/22 06:27:55;;;;;;;16.87;10.27;;;;;;;;;;5072152;28;20448;-68
2021/09/22 06:30:22;;;;;;;15.10;10.67;;;;;;;;;;5071185;28;20540;-68
2021/09/22 06:32:51;;;;;;;17.77;11.37;;;;;;;;;;5071591;28;20536;-68
2021/09/22 06:35:18;;;;;;;15.03;10.90;;;;;;;;;;5071994;28;20507;-68
2021/09/22 06:37:48;;;;;;;15.00;10.83;;;;;;;;;;5071147;28;20996;-68
2021/09/22 06:40:17;;;;;;;15.27;10.83;;;;;;;;;;5071780;28;20465;-68
2021/09/22 06:42:44;;;;;;;18.07;11.40;;;;;;;;;;5071592;28;20539;-72
2021/09/22 06:45:12;;;;;;;16.70;11.70;;;;;;;;;;5072014;28;20812;-69
2021/09/22 06:47:39;;;;;;;19.97;11.20;;;;;;;;;;5071641;28;20852;-68
2021/09/22 06:50:08;;;;;;;18.93;12.83;;;;;;;;;;5071519;28;20484;-69
2021/09/22 06:52:35;;;;;;;14.53;10.80;;;;;;;;;;5071232;28;20816;-68
2021/09/22 06:55:02;;;;;;;13.50;10.77;;;;;;;;;;5071799;28;20472;-68
2021/09/22 06:57:30;;;;;;;18.40;12.80;;;;;;;;;;5071208;28;20442;-72
2021/09/22 06:59:57;;;;;;;17.17;12.70;;;;;;;;;;5071187;28;20455;-68
2021/09/22 07:02:24;;;;;;;16.67;12.70;;;;;;;;;;5072034;28;20564;-71
2021/09/22 07:04:51;;;;;;;18.00;12.87;;;;;;;;;;5070753;28;20457;-68
2021/09/22 07:07:20;;;;;;;18.77;11.90;;;;;;;;;;5071346;28;20485;-68
2021/09/22 07:09:47;;;;;;;15.63;13.00;;;;;;;;;;5070292;28;20455;-69
2021/09/22 07:12:14;;;;;;;18.00;12.13;;;;;;;;;;5071421;28;20449;-69
2021/09/22 07:14:41;;;;;;;16.57;12.13;;;;;;;;;;5070610;28;20456;-68
2021/09/22 07:17:08;;;;;;;18.17;12.80;;;;;;;;;;5071161;28;20445;-68
2021/09/22 07:19:35;;;;;;;20.57;13.50;;;;;;;;;;5070274;28;20457;-68
2021/09/22 07:22:03;;;;;;;15.80;12.27;;;;;;;;;;5071234;28;20523;-68
2021/09/22 07:24:31;;;;;;;20.47;12.80;;;;;;;;;;5070841;28;20457;-74
2021/09/22 07:26:58;;;;;;;21.27;12.97;;;;;;;;;;5071415;28;20866;-71
2021/09/22 07:29:27;;;;;;;17.93;13.30;;;;;;;;;;5070513;28;20452;-68
2021/09/22 07:31:54;;;;;;;19.47;14.07;;;;;;;;;;5070844;28;20485;-68
2021/09/22 07:34:23;;;;;;;20.50;14.00;;;;;;;;;;5070729;28;20925;-68
2021/09/22 07:36:51;;;;;;;20.50;13.30;;;;;;;;;;5070132;28;20473;-68
2021/09/22 07:39:18;;;;;;;18.77;14.33;;;;;;;;;;5070206;28;20441;-69
2021/09/22 07:41:46;;;;;;;18.27;13.60;;;;;;;;;;5069144;28;20485;-70
2021/09/22 07:44:13;;;;;;;20.80;14.03;;;;;;;;;;5070519;28;21120;-69
2021/09/22 07:46:41;;;;;;;20.43;13.30;;;;;;;;;;5069908;28;20446;-68
2021/09/22 07:49:08;;;;;;;19.13;12.93;;;;;;;;;;5070062;28;20457;-68
2021/09/22 07:51:35;;;;;;;18.43;13.43;;;;;;;;;;5069645;28;20808;-68
2021/09/22 07:54:02;;;;;;;18.50;13.03;;;;;;;;;;5070191;28;20913;-68
2021/09/22 07:56:29;;;;;;;16.13;12.33;;;;;;;;;;5069912;28;20595;-74
2021/09/22 07:58:58;;;;;;;15.80;12.80;;;;;;;;;;5069947;28;20532;-68
2021/09/22 08:01:25;;;;;;;19.60;13.43;;;;;;;;;;5070196;28;20573;-71
2021/09/22 08:03:52;;;;;;;17.67;13.07;;;;;;;;;;5070075;28;20477;-68
2021/09/22 08:06:19;;;;;;;19.80;15.00;;;;;;;;;;5069959;28;20577;-68
2021/09/22 08:08:46;;;;;;;17.77;13.07;;;;;;;;;;5069696;28;20533;-70
2021/09/22 08:11:13;;;;;;;16.77;12.63;;;;;;;;;;5070499;28;20570;-69
2021/09/22 08:13:41;;;;;;;17.83;13.43;;;;;;;;;;5069681;28;20956;-68
2021/09/22 08:16:10;;;;;;;22.00;13.40;;;;;;;;;;5069790;28;20881;-69
2021/09/22 08:18:37;;;;;;;19.73;13.60;;;;;;;;;;5069318;28;20455;-69
2021/09/22 08:21:04;;;;;;;18.17;14.20;;;;;;;;;;5069430;28;21245;-72
2021/09/22 08:23:31;;;;;;;22.53;13.60;;;;;;;;;;5069470;28;20561;-68
2021/09/22 08:25:58;;;;;;;16.40;13.33;;;;;;;;;;5070049;28;20473;-71
2021/09/22 08:28:26;;;;;;;20.00;13.50;;;;;;;;;;5069773;28;20447;-69
2021/09/22 08:30:53;;;;;;;17.27;14.47;;;;;;;;;;5069178;28;20449;-69
2021/09/22 08:33:21;;;;;;;18.87;13.10;;;;;;;;;;5070224;28;20527;-68
2021/09/22 08:35:48;;;;;;;15.77;12.50;;;;;;;;;;5068957;28;20464;-69
2021/09/22 08:38:16;;;;;;;17.90;13.03;;;;;;;;;;5069819;28;20537;-69
2021/09/22 08:40:43;;;;;;;13.77;11.50;;;;;;;;;;5068875;28;21080;-69
2021/09/22 08:43:10;;;;;;;14.80;11.50;;;;;;;;;;5069974;28;21031;-69
2021/09/22 08:45:38;;;;;;;13.57;11.67;;;;;;;;;;5069252;28;20477;-68
2021/09/22 08:48:06;;;;;;;15.03;12.20;;;;;;;;;;5069771;28;20524;-68
2021/09/22 08:50:34;;;;;;;13.50;11.37;;;;;;;;;;5068871;28;20452;-69
2021/09/22 08:53:02;;;;;;;13.97;11.50;;;;;;;;;;5069570;28;20453;-69
2021/09/22 08:55:29;;;;;;;16.40;11.40;;;;;;;;;;5069341;28;20442;-71
2021/09/22 08:57:56;;;;;;;14.60;10.90;;;;;;;;;;5070000;28;20558;-68
2021/09/22 09:00:23;;;;;;;15.23;11.53;;;;;;;;;;5069363;28;20875;-69
2021/09/22 09:02:50;;;;;;;14.13;11.63;;;;;;;;;;5069274;28;20473;-69
2021/09/22 09:05:19;;;;;;;13.67;11.03;;;;;;;;;;5069647;28;20529;-69
2021/09/22 09:07:52;;;;;;;10.47;9.00;;;;;;;;;;5068675;28;21031;-69
2021/09/22 09:10:21;;;;;;;9.13;8.03;;;;;;;;;;5069274;28;20499;-69
2021/09/22 09:12:59;;;;;;;9.93;8.00;;;;;;;;;;5068754;28;21374;-69
2021/09/22 09:15:30;;;;;;;10.70;8.47;;;;;;;;;;5069830;28;20452;-69
2021/09/22 09:17:59;;;;;;;13.00;9.60;;;;;;;;;;5069488;28;20454;-69
2021/09/22 09:20:28;;;;;;;9.10;8.20;;;;;;;;;;5069066;28;20929;-69
2021/09/22 09:23:06;;;;;;;10.10;7.80;;;;;;;;;;5069326;28;20945;-69
2021/09/22 09:25:35;;;;;;;11.00;8.37;;;;;;;;;;5068700;28;20503;-69
2021/09/22 09:28:15;;;;;;;9.40;7.90;;;;;;;;;;5069688;28;20460;-69
2021/09/22 09:30:45;;;;;;;11.10;8.27;;;;;;;;;;5068155;28;20451;-69
2021/09/22 09:33:12;;;;;;;10.70;8.43;;;;;;;;;;5069451;28;20502;-69
2021/09/22 09:35:40;;;;;;;9.27;8.27;;;;;;;;;;5068445;28;20515;-69
2021/09/22 09:38:11;;;;;;;8.17;7.23;;;;;;;;;;5069251;28;20537;-69
2021/09/22 09:40:39;;;;;;;10.10;7.90;;;;;;;;;;5068176;28;20440;-69
2021/09/22 09:43:08;;;;;;;6.80;6.10;;;;;;;;;;5069059;28;20977;-70
2021/09/22 09:45:36;;;;;;;9.87;7.27;;;;;;;;;;5068713;28;20445;-71
2021/09/22 09:48:05;;;;;;;9.27;7.30;;;;;;;;;;5069522;28;20808;-69
2021/09/22 09:50:37;;;;;;;9.90;7.50;;;;;;;;;;5068071;28;20450;-69
2021/09/22 09:53:04;;;;;;;11.90;8.30;;;;;;;;;;5069425;28;21329;-75
2021/09/22 09:55:34;;;;;;;8.50;6.77;;;;;;;;;;5068650;28;20483;-69
2021/09/22 09:58:01;;;;;;;10.87;6.03;;;;;;;;;;5069004;28;20445;-69
2021/09/22 10:00:43;;;;;;;8.07;5.97;;;;;;;;;;5068687;28;20616;-75
2021/09/22 10:03:11;;;;;;;7.97;6.50;;;;;;;;;;5069033;28;20438;-69
2021/09/22 10:05:38;;;;;;;6.67;5.70;;;;;;;;;;5070210;28;20449;-69
2021/09/22 10:08:05;;;;;;;11.60;6.93;;;;;;;;;;5072382;28;20503;-70
2021/09/22 10:10:34;;;;;;;6.50;5.20;;;;;;;;;;5071682;28;20798;-69
2021/09/22 10:13:02;;;;;;;6.37;4.70;;;;;;;;;;5072541;28;20459;-69
2021/09/22 10:15:30;;;;;;;6.70;5.67;;;;;;;;;;5072112;28;20518;-75
2021/09/22 10:17:57;;;;;;;7.27;5.80;;;;;;;;;;5072725;28;20461;-69
2021/09/22 10:20:25;;;;;;;9.10;5.90;;;;;;;;;;5072213;28;20540;-74
2021/09/22 10:22:52;;;;;;;7.00;6.00;;;;;;;;;;5072010;28;20476;-69
2021/09/22 10:25:21;;;;;;;5.77;5.27;;;;;;;;;;5072386;28;20536;-69
2021/09/22 10:27:51;;;;;;;6.77;5.50;;;;;;;;;;5071715;28;21461;-69
2021/09/22 10:30:18;;;;;;;7.10;5.77;;;;;;;;;;5072020;28;20441;-68
2021/09/22 10:32:47;;;;;;;12.33;6.73;;;;;;;;;;5071296;28;20528;-70
2021/09/22 10:35:35;;;;;;;7.87;6.30;;;;;;;;;;5072004;28;21039;-69
2021/09/22 10:38:03;;;;;;;8.57;6.77;;;;;;;;;;5072497;28;20449;-69
2021/09/22 10:40:48;;;;;;;7.40;5.93;;;;;;;;;;5071573;28;20803;-75
2021/09/22 10:43:24;;;;;;;6.77;6.10;;;;;;;;;;5071936;28;21027;-69
2021/09/22 10:46:11;;;;;;;6.27;5.63;;;;;;;;;;5070958;28;20544;-69
2021/09/22 10:48:38;;;;;;;6.53;5.77;;;;;;;;;;5070950;28;20528;-69
2021/09/22 10:51:06;;;;;;;5.30;4.80;;;;;;;;;;5071472;28;20452;-69
2021/09/22 10:53:41;;;;;;;5.60;5.00;;;;;;;;;;5071102;28;20451;-69
2021/09/22 10:56:10;;;;;;;4.90;4.40;;;;;;;;;;5071735;28;20445;-69
2021/09/22 10:58:42;;;;;;;5.40;4.50;;;;;;;;;;5070973;28;20524;-69
2021/09/22 11:01:09;;;;;;;5.33;4.83;;;;;;;;;;5072242;28;20457;-69
2021/09/22 11:03:55;;;;;;;7.30;5.13;;;;;;;;;;5071288;28;20457;-69
2021/09/22 11:06:41;;;;;;;5.27;4.70;;;;;;;;;;5072003;28;20508;-69
2021/09/22 11:09:10;;;;;;;8.73;5.50;;;;;;;;;;5071353;28;20525;-69
2021/09/22 11:11:55;;;;;;;5.20;4.47;;;;;;;;;;5070838;28;21078;-69
2021/09/22 11:14:31;;;;;;;4.73;4.23;;;;;;;;;;5071543;28;20445;-68
2021/09/22 11:16:59;;;;;;;5.70;4.83;;;;;;;;;;5071569;28;20469;-72
2021/09/22 11:19:27;;;;;;;4.77;4.27;;;;;;;;;;5071109;28;20448;-69
2021/09/22 11:21:54;;;;;;;5.00;4.00;;;;;;;;;;5071628;28;20568;-69
2021/09/22 11:24:23;;;;;;;5.13;3.63;;;;;;;;;;5071511;28;20462;-69
2021/09/22 11:26:50;;;;;;;4.40;3.50;;;;;;;;;;5071094;28;20446;-69
2021/09/22 11:29:29;;;;;;;3.93;3.60;;;;;;;;;;5070989;28;20532;-69
2021/09/22 11:31:58;;;;;;;4.83;4.23;;;;;;;;;;5071196;28;20537;-69
2021/09/22 11:34:27;;;;;;;5.00;3.40;;;;;;;;;;5071166;28;20548;-72
2021/09/22 11:37:07;;;;;;;6.03;3.87;;;;;;;;;;5071592;28;20523;-69
2021/09/22 11:39:35;;;;;;;3.13;2.67;;;;;;;;;;5061740;28;20801;-69
2021/09/22 11:42:02;;;;;;;3.03;2.80;;;;;;;;;;5066399;28;20847;-69
2021/09/22 11:44:30;;;;;;;3.80;3.30;;;;;;;;;;5071032;28;20464;-75
2021/09/22 11:47:01;;;;;;;3.00;2.70;;;;;;;;;;5071020;28;20473;-69
2021/09/22 11:49:35;;;;;;;5.20;2.90;;;;;;;;;;5070614;28;20445;-69
2021/09/22 11:52:13;;;;;;;3.90;2.60;;;;;;;;;;5071268;28;20489;-69
2021/09/22 11:54:44;;;;;;;3.70;3.40;;;;;;;;;;5070273;28;21009;-69
2021/09/22 11:57:14;;;;;;;4.83;3.40;;;;;;;;;;5070786;28;20520;-71
2021/09/22 11:59:43;;;;;;;3.90;3.50;;;;;;;;;;5069952;28;20457;-69
2021/09/22 12:02:12;;;;;;;7.23;3.87;;;;;;;;;;5070389;28;20543;-68
2021/09/22 12:04:40;;;;;;;3.77;3.30;;;;;;;;;;5069969;28;20452;-69
2021/09/22 12:07:08;;;;;;;5.57;3.33;;;;;;;;;;5070324;28;20576;-69
2021/09/22 12:09:39;;;;;;;3.77;3.40;;;;;;;;;;5069906;28;20529;-69
2021/09/22 12:12:11;;;;;;;3.43;3.13;;;;;;;;;;5070128;28;20449;-69
2021/09/22 12:14:38;;;;;;;7.50;3.90;;;;;;;;;;5070062;28;20521;-69
2021/09/22 12:17:10;;;;;;;6.53;3.20;;;;;;;;;;5070327;28;20799;-69
2021/09/22 12:19:40;;;;;;;3.50;3.00;;;;;;;;;;5069492;28;20449;-68
2021/09/22 12:22:07;;;;;;;5.60;2.60;;;;;;;;;;5070066;28;21245;-69
2021/09/22 12:24:35;;;;;;;3.93;2.63;;;;;;;;;;5069557;28;20445;-69
2021/09/22 12:27:03;;;;;;;3.00;2.47;;;;;;;;;;5070281;28;20532;-69
2021/09/22 12:29:30;;;;;;;3.63;2.27;;;;;;;;;;5068942;28;20503;-74
2021/09/22 12:32:06;;;;;;;3.20;2.90;;;;;;;;;;5070536;28;20530;-69
2021/09/22 12:34:41;;;;;;;4.77;2.97;;;;;;;;;;5069833;28;20512;-69
2021/09/22 12:37:15;;;;;;;3.10;2.70;;;;;;;;;;5069772;28;20453;-69
2021/09/22 12:39:52;;;;;;;6.03;2.50;;;;;;;;;;5059582;28;20455;-69
2021/09/22 12:42:19;;;;;;;3.40;3.10;;;;;;;;;;5067942;28;20492;-69
2021/09/22 12:44:53;;;;;;;3.20;2.67;;;;;;;;;;5069341;28;20445;-69
2021/09/22 12:47:20;;;;;;;4.10;2.87;;;;;;;;;;5069717;28;20536;-69
2021/09/22 12:50:02;;;;;;;3.27;2.43;;;;;;;;;;5068853;28;20537;-69
2021/09/22 12:52:31;;;;;;;3.80;2.93;;;;;;;;;;5069178;28;20453;-71
2021/09/22 12:54:58;;;;;;;4.20;3.77;;;;;;;;;;5070035;28;20536;-69
2021/09/22 12:57:25;;;;;;;2.97;2.70;;;;;;;;;;5069866;28;20480;-70
2021/09/22 12:59:52;;;;;;;3.17;2.90;;;;;;;;;;5068541;28;20929;-69
2021/09/22 13:02:22;;;;;;;7.37;3.70;;;;;;;;;;5069445;28;20487;-69
2021/09/22 13:04:50;;;;;;;4.77;3.90;;;;;;;;;;5068832;28;20988;-69
2021/09/22 13:07:23;;;;;;;3.70;3.40;;;;;;;;;;5069395;28;20575;-69
2021/09/22 13:10:00;;;;;;;5.43;3.60;;;;;;;;;;5068613;28;20442;-68
2021/09/22 13:12:30;;;;;;;3.10;2.87;;;;;;;;;;5069828;28;20441;-68
2021/09/22 13:14:58;;;;;;;3.37;3.07;;;;;;;;;;5069672;28;20876;-68
2021/09/22 13:17:25;;;;;;;4.00;3.27;;;;;;;;;;5069871;28;20461;-72
2021/09/22 13:19:52;;;;;;;4.20;3.20;;;;;;;;;;5068413;28;20477;-69
2021/09/22 13:22:19;;;;;;;3.53;3.23;;;;;;;;;;5069659;28;20923;-69
2021/09/22 13:24:46;;;;;;;4.30;3.83;;;;;;;;;;5068446;28;20454;-70
2021/09/22 13:27:15;;;;;;;4.33;3.77;;;;;;;;;;5069413;28;20456;-69
2021/09/22 13:29:42;;;;;;;4.53;3.43;;;;;;;;;;5068597;28;20449;-71
2021/09/22 13:32:10;;;;;;;3.73;3.40;;;;;;;;;;5069356;28;20489;-71
2021/09/22 13:34:37;;;;;;;3.67;3.37;;;;;;;;;;5068570;28;20899;-69
2021/09/22 13:37:07;;;;;;;3.53;3.17;;;;;;;;;;5069199;28;20453;-69
2021/09/22 13:39:34;;;;;;;4.17;3.50;;;;;;;;;;5068702;28;20510;-69
2021/09/22 13:42:01;;;;;;;7.20;3.83;;;;;;;;;;5073169;28;20524;-69
2021/09/22 13:44:30;;;;;;;4.10;3.30;;;;;;;;;;5072780;28;20985;-74
2021/09/22 13:46:57;;;;;;;4.43;3.43;;;;;;;;;;5073031;28;20477;-68
2021/09/22 13:49:26;;;;;;;3.30;2.97;;;;;;;;;;5072836;28;20506;-73
2021/09/22 13:51:53;;;;;;;3.70;3.20;;;;;;;;;;5071972;28;20464;-69
2021/09/22 13:54:20;;;;;;;3.97;3.57;;;;;;;;;;5072867;28;20855;-69
2021/09/22 13:56:47;;;;;;;5.20;3.87;;;;;;;;;;5072054;28;20540;-68
2021/09/22 13:59:15;;;;;;;4.27;3.13;;;;;;;;;;5072649;28;20522;-68
2021/09/22 14:01:44;;;;;;;8.37;2.90;;;;;;;;;;5072150;28;20449;-69
2021/09/22 14:04:11;;;;;;;4.33;3.40;;;;;;;;;;5072741;28;20571;-69
2021/09/22 14:06:38;;;;;;;3.90;2.87;;;;;;;;;;5072294;28;20483;-69
2021/09/22 14:09:06;;;;;;;4.20;3.07;;;;;;;;;;5072283;28;20452;-69
2021/09/22 14:11:33;;;;;;;3.23;2.80;;;;;;;;;;5072263;28;20460;-69
2021/09/22 14:14:03;;;;;;;3.13;2.90;;;;;;;;;;5072893;28;20449;-69
2021/09/22 14:16:30;;;;;;;3.30;3.00;;;;;;;;;;5072320;28;20850;-69
2021/09/22 14:18:59;;;;;;;5.23;3.27;;;;;;;;;;5072861;28;20537;-69
2021/09/22 14:21:26;;;;;;;2.97;2.77;;;;;;;;;;5072575;28;20533;-69
2021/09/22 14:23:53;;;;;;;3.93;3.13;;;;;;;;;;5072558;28;20485;-68
2021/09/22 14:26:20;;;;;;;4.20;3.60;;;;;;;;;;5072525;28;20445;-68
2021/09/22 14:28:47;;;;;;;6.63;3.13;;;;;;;;;;5071485;28;20532;-70
2021/09/22 14:31:14;;;;;;;4.30;3.07;;;;;;;;;;5072273;28;20511;-69
2021/09/22 14:33:41;;;;;;;3.93;3.10;;;;;;;;;;5071714;28;20541;-69
2021/09/22 14:36:10;;;;;;;4.00;2.97;;;;;;;;;;5058687;28;20456;-68
2021/09/22 14:38:37;;;;;;;4.43;3.03;;;;;;;;;;5070729;28;20532;-69
2021/09/22 14:41:04;;;;;;;4.60;3.20;;;;;;;;;;5071913;28;20445;-69